createdAt,value
2023-02-19T00:00:50.031Z,12.47
2023-02-19T00:04:14.723Z,12.41
2023-02-19T00:07:17.305Z,12.48
2023-02-19T00:10:20.401Z,12.36
2023-02-19T00:13:22.916Z,12.26
2023-02-19T00:16:40.042Z,12.18
2023-02-19T00:19:42.542Z,12.18
2023-02-19T00:22:45.673Z,12.18
2023-02-19T00:25:48.165Z,12.17
2023-02-19T00:28:52.668Z,12.10
2023-02-19T00:31:55.654Z,12.16
2023-02-19T00:34:58.849Z,12.13
2023-02-19T00:38:01.497Z,12.06
2023-02-19T00:41:18.999Z,12.09
2023-02-19T00:44:21.770Z,12.15
2023-02-19T00:47:24.773Z,12.11
2023-02-19T00:50:27.490Z,12.11
2023-02-19T00:53:30.454Z,12.13
2023-02-19T00:56:33.303Z,12.07
2023-02-19T00:59:36.932Z,12.04
2023-02-19T01:02:39.477Z,12.08
2023-02-19T01:05:42.569Z,12.07
2023-02-19T01:08:45.762Z,12.02
2023-02-19T01:11:48.912Z,12.10
2023-02-19T01:14:51.625Z,12.07
2023-02-19T01:17:55.494Z,12.20
2023-02-19T01:20:58.134Z,12.08
2023-02-19T01:24:01.150Z,12.15
2023-02-19T01:27:04.038Z,12.21
2023-02-19T01:30:07.642Z,12.18
2023-02-19T01:33:10.323Z,12.25
2023-02-19T01:36:13.911Z,12.30
2023-02-19T01:39:16.500Z,12.26
2023-02-19T01:42:19.697Z,12.25
2023-02-19T01:45:24.237Z,12.21
2023-02-19T01:48:38.141Z,12.30
2023-02-19T01:51:57.755Z,12.19
2023-02-19T01:55:03.613Z,12.16
2023-02-19T01:58:07.685Z,12.11
2023-02-19T02:01:14.093Z,12.07
2023-02-19T02:04:18.821Z,12.20
2023-02-19T02:07:42.767Z,12.17
2023-02-19T02:10:45.611Z,12.28
2023-02-19T02:13:49.188Z,12.08
2023-02-19T02:17:03.030Z,12.08
2023-02-19T02:20:15.370Z,12.04
2023-02-19T02:23:50.033Z,12.04
2023-02-19T02:27:30.579Z,12.27
2023-02-19T02:30:39.576Z,12.21
2023-02-19T02:33:50.170Z,12.26
2023-02-19T02:36:55.822Z,12.18
2023-02-19T02:39:59.530Z,12.11
2023-02-19T02:43:02.292Z,12.11
2023-02-19T02:46:06.696Z,12.08
2023-02-19T02:49:16.902Z,12.12
2023-02-19T02:52:40.041Z,12.03
2023-02-19T02:55:46.536Z,12.10
2023-02-19T02:58:50.841Z,12.09
2023-02-19T03:02:19.000Z,12.07
2023-02-19T03:05:44.332Z,12.09
2023-02-19T03:09:05.489Z,12.35
2023-02-19T03:12:33.558Z,12.18
2023-02-19T03:16:22.807Z,12.24
2023-02-19T03:19:28.759Z,12.05
2023-02-19T03:22:36.338Z,12.12
2023-02-19T03:25:58.865Z,12.18
2023-02-19T03:29:22.215Z,12.07
2023-02-19T03:32:30.991Z,12.07
2023-02-19T03:35:40.308Z,12.08
2023-02-19T03:38:53.127Z,12.06
2023-02-19T03:42:02.576Z,12.21
2023-02-19T03:45:11.903Z,12.37
2023-02-19T03:48:20.447Z,12.14
2023-02-19T03:51:44.101Z,12.00
2023-02-19T03:54:52.118Z,11.90
2023-02-19T03:58:04.892Z,11.82
2023-02-19T04:01:20.087Z,11.79
2023-02-19T04:04:48.688Z,11.76
2023-02-19T04:07:57.554Z,11.89
2023-02-19T04:11:02.873Z,11.89
2023-02-19T04:14:15.659Z,11.98
2023-02-19T04:17:32.491Z,11.93
2023-02-19T04:20:41.157Z,11.91
2023-02-19T04:23:45.827Z,11.93
2023-02-19T04:26:48.873Z,11.84
2023-02-19T04:29:52.086Z,11.81
2023-02-19T04:32:54.718Z,11.83
2023-02-19T04:35:57.652Z,11.81
2023-02-19T04:39:00.119Z,11.74
2023-02-19T04:42:03.138Z,11.70
2023-02-19T04:45:06.132Z,11.66
2023-02-19T04:48:09.606Z,11.62
2023-02-19T04:51:12.639Z,11.64
2023-02-19T04:54:15.910Z,11.59
2023-02-19T04:57:18.493Z,11.55
2023-02-19T05:00:21.712Z,11.51
2023-02-19T05:03:24.320Z,11.53
2023-02-19T05:06:27.683Z,11.56
2023-02-19T05:09:30.271Z,11.53
2023-02-19T05:12:33.393Z,11.52
2023-02-19T05:15:37.633Z,11.50
2023-02-19T05:18:41.431Z,11.64
2023-02-19T05:21:43.802Z,11.71
2023-02-19T05:24:46.827Z,12.05
2023-02-19T05:27:49.508Z,12.08
2023-02-19T05:30:53.286Z,12.10
2023-02-19T05:33:56.478Z,11.94
2023-02-19T05:36:59.656Z,12.03
2023-02-19T05:40:02.297Z,12.03
2023-02-19T05:43:05.661Z,11.90
2023-02-19T05:46:09.533Z,11.86
2023-02-19T05:49:12.672Z,11.87
2023-02-19T05:52:15.442Z,11.86
2023-02-19T05:55:18.879Z,11.92
2023-02-19T05:58:21.416Z,11.83
2023-02-19T06:01:28.037Z,11.76
2023-02-19T06:04:30.858Z,12.02
2023-02-19T06:07:34.077Z,11.85
2023-02-19T06:10:38.511Z,11.92
2023-02-19T06:13:41.343Z,11.72
2023-02-19T06:16:44.336Z,11.45
2023-02-19T06:19:47.225Z,11.36
2023-02-19T06:22:51.027Z,11.28
2023-02-19T06:25:53.901Z,11.09
2023-02-19T06:28:56.789Z,11.16
2023-02-19T06:32:01.058Z,11.06
2023-02-19T06:35:04.691Z,10.89
2023-02-19T06:38:07.592Z,10.89
2023-02-19T06:41:11.836Z,10.91
2023-02-19T06:44:15.080Z,10.86
2023-02-19T06:47:18.008Z,10.75
2023-02-19T06:50:20.802Z,10.75
2023-02-19T06:53:24.405Z,10.69
2023-02-19T06:56:32.713Z,10.81
2023-02-19T06:59:35.534Z,10.68
2023-02-19T07:02:38.430Z,10.67
2023-02-19T07:05:41.447Z,10.52
2023-02-19T07:08:44.779Z,10.54
2023-02-19T07:11:47.711Z,10.45
2023-02-19T07:14:50.521Z,10.31
2023-02-19T07:17:53.394Z,10.30
2023-02-19T07:21:01.732Z,10.09
2023-02-19T07:24:05.828Z,9.90
2023-02-19T07:27:08.818Z,9.88
2023-02-19T07:30:11.958Z,9.87
2023-02-19T07:33:14.910Z,9.86
2023-02-19T07:36:21.520Z,9.78
2023-02-19T07:39:24.776Z,9.74
2023-02-19T07:42:27.709Z,9.71
2023-02-19T07:45:30.635Z,9.86
2023-02-19T07:48:35.380Z,9.87
2023-02-19T07:51:39.925Z,9.85
2023-02-19T07:54:42.802Z,9.74
2023-02-19T07:57:45.643Z,9.69
2023-02-19T08:00:48.610Z,9.77
2023-02-19T08:03:51.743Z,9.72
2023-02-19T08:06:54.262Z,9.70
2023-02-19T08:10:17.371Z,9.79
2023-02-19T08:13:22.654Z,9.94
2023-02-19T08:16:40.769Z,9.80
2023-02-19T08:19:45.297Z,9.76
2023-02-19T08:22:51.051Z,9.82
2023-02-19T08:25:57.367Z,9.74
2023-02-19T08:29:00.525Z,9.77
2023-02-19T08:32:03.133Z,9.86
2023-02-19T08:35:06.566Z,9.83
2023-02-19T08:41:14.802Z,9.83
2023-02-19T08:44:17.503Z,9.92
2023-02-19T08:47:20.643Z,10.15
2023-02-19T08:50:23.271Z,10.37
2023-02-19T08:53:26.809Z,10.59
2023-02-19T08:56:29.372Z,10.70
2023-02-19T08:59:32.468Z,10.73
2023-02-19T09:02:35.752Z,10.95
2023-02-19T09:05:39.863Z,11.11
2023-02-19T09:08:42.615Z,11.27
2023-02-19T09:11:47.820Z,11.41
2023-02-19T09:14:51.698Z,11.53
2023-02-19T09:17:54.797Z,11.57
2023-02-19T09:21:01.646Z,11.80
2023-02-19T09:24:05.126Z,11.73
2023-02-19T09:27:07.725Z,11.51
2023-02-19T09:30:10.977Z,11.54
2023-02-19T09:33:13.446Z,11.60
2023-02-19T09:36:18.678Z,11.70
2023-02-19T09:39:21.489Z,11.82
2023-02-19T09:42:29.973Z,11.92
2023-02-19T09:45:34.840Z,11.91
2023-02-19T09:48:38.040Z,11.89
2023-02-19T09:51:44.872Z,12.18
2023-02-19T09:54:48.226Z,12.42
2023-02-19T09:57:51.956Z,13.13
2023-02-19T10:00:57.049Z,13.78
2023-02-19T10:04:00.396Z,13.87
2023-02-19T10:07:03.869Z,13.64
2023-02-19T10:10:24.481Z,14.02
2023-02-19T10:13:30.414Z,15.21
2023-02-19T10:16:34.242Z,16.25
2023-02-19T10:19:37.109Z,17.00
2023-02-19T10:22:40.007Z,17.30
2023-02-19T10:26:12.227Z,17.55
2023-02-19T10:29:15.105Z,18.20
2023-02-19T10:32:23.972Z,18.75
2023-02-19T10:35:27.082Z,19.48
2023-02-19T10:38:31.862Z,19.33
2023-02-19T10:41:43.110Z,18.93
2023-02-19T10:44:55.547Z,18.23
2023-02-19T10:47:58.602Z,17.80
2023-02-19T10:51:13.424Z,17.70
2023-02-19T10:54:21.949Z,18.05
2023-02-19T10:57:31.317Z,18.17
2023-02-19T11:00:34.186Z,18.18
2023-02-19T11:03:36.976Z,18.66
2023-02-19T11:06:40.178Z,18.75
2023-02-19T11:09:49.536Z,19.01
2023-02-19T11:12:55.391Z,19.30
2023-02-19T11:16:00.053Z,19.88
2023-02-19T11:19:03.014Z,20.41
2023-02-19T11:22:47.053Z,20.63
2023-02-19T11:25:53.076Z,20.91
2023-02-19T11:29:16.733Z,21.19
2023-02-19T11:32:29.701Z,21.25
2023-02-19T11:35:32.440Z,20.97
2023-02-19T11:38:35.496Z,20.57
2023-02-19T11:41:41.043Z,20.55
2023-02-19T11:45:11.115Z,20.78
2023-02-19T11:48:45.378Z,20.94
2023-02-19T11:51:57.246Z,21.33
2023-02-19T11:55:09.083Z,21.58
2023-02-19T11:58:43.236Z,21.68
2023-02-19T12:02:12.000Z,21.81
2023-02-19T12:05:39.778Z,21.86
2023-02-19T12:09:04.703Z,21.58
2023-02-19T12:12:40.727Z,21.71
2023-02-19T12:16:17.809Z,21.93
2023-02-19T12:19:37.024Z,21.95
2023-02-19T12:22:57.699Z,22.17
2023-02-19T12:26:06.690Z,22.13
2023-02-19T12:29:32.235Z,22.06
2023-02-19T12:32:47.742Z,21.68
2023-02-19T12:36:02.980Z,21.65
2023-02-19T12:39:24.047Z,21.54
2023-02-19T12:42:51.745Z,21.52
2023-02-19T12:46:21.554Z,21.63
2023-02-19T12:49:31.739Z,21.96
2023-02-19T12:52:41.027Z,22.01
2023-02-19T12:55:46.660Z,22.11
2023-02-19T12:58:55.303Z,21.20
2023-02-19T13:02:24.010Z,20.07
2023-02-19T13:05:49.948Z,19.14
2023-02-19T13:09:06.474Z,18.32
2023-02-19T13:12:39.131Z,17.55
2023-02-19T13:15:45.433Z,16.92
2023-02-19T13:18:58.839Z,16.68
2023-02-19T13:23:04.453Z,17.73
2023-02-19T13:26:22.256Z,19.77
2023-02-19T13:29:31.497Z,21.09
2023-02-19T13:33:02.535Z,22.74
2023-02-19T13:36:14.505Z,23.98
2023-02-19T13:39:20.755Z,24.14
2023-02-19T13:42:36.883Z,23.61
2023-02-19T13:45:43.934Z,22.47
2023-02-19T13:48:46.948Z,21.58
2023-02-19T13:51:55.440Z,20.40
2023-02-19T13:55:40.761Z,18.97
2023-02-19T13:59:00.198Z,17.95
2023-02-19T14:02:04.566Z,17.11
2023-02-19T14:05:10.327Z,16.40
2023-02-19T14:08:16.184Z,15.91
2023-02-19T14:11:41.884Z,15.44
2023-02-19T14:14:45.568Z,15.15
2023-02-19T14:17:48.690Z,14.70
2023-02-19T14:21:17.084Z,14.45
2023-02-19T14:24:20.395Z,14.33
2023-02-19T14:27:23.784Z,14.04
2023-02-19T14:30:28.188Z,13.90
2023-02-19T14:33:34.382Z,13.82
2023-02-19T14:36:55.152Z,13.80
2023-02-19T14:39:58.988Z,13.83
2023-02-19T14:43:04.657Z,13.87
2023-02-19T14:46:28.130Z,14.09
2023-02-19T14:49:36.745Z,14.20
2023-02-19T14:52:45.769Z,14.17
2023-02-19T14:55:50.630Z,14.13
2023-02-19T14:59:09.759Z,14.08
2023-02-19T15:02:17.392Z,13.90
2023-02-19T15:05:29.630Z,13.77
2023-02-19T15:08:43.822Z,13.62
2023-02-19T15:11:47.041Z,13.48
2023-02-19T15:14:51.211Z,13.25
2023-02-19T15:17:55.519Z,13.30
2023-02-19T15:21:02.562Z,13.24
2023-02-19T15:24:08.977Z,13.02
2023-02-19T15:27:19.134Z,12.92
2023-02-19T15:30:31.357Z,12.82
2023-02-19T15:33:34.977Z,12.81
2023-02-19T15:36:37.919Z,12.71
2023-02-19T15:39:46.627Z,12.65
2023-02-19T15:42:52.309Z,12.68
2023-02-19T15:45:57.853Z,12.60
2023-02-19T15:49:22.039Z,12.41
2023-02-19T15:52:59.366Z,12.41
2023-02-19T15:56:16.932Z,12.31
2023-02-19T15:59:31.966Z,12.30
2023-02-19T16:02:36.070Z,12.06
2023-02-19T16:05:41.811Z,12.11
2023-02-19T16:08:47.022Z,12.00
2023-02-19T16:11:53.219Z,11.97
2023-02-19T16:14:56.201Z,11.81
2023-02-19T16:17:59.556Z,11.74
2023-02-19T16:21:08.080Z,11.73
2023-02-19T16:24:22.862Z,11.91
2023-02-19T16:27:42.411Z,11.67
2023-02-19T16:30:45.474Z,11.69
2023-02-19T16:33:50.079Z,11.67
2023-02-19T16:36:53.180Z,11.65
2023-02-19T16:40:08.534Z,11.48
2023-02-19T16:43:14.463Z,11.46
2023-02-19T16:46:17.517Z,11.55
2023-02-19T16:49:22.660Z,11.64
2023-02-19T16:52:26.603Z,11.50
2023-02-19T16:55:32.646Z,11.52
2023-02-19T16:58:35.493Z,11.38
2023-02-19T17:01:38.805Z,11.32
2023-02-19T17:04:41.633Z,11.12
2023-02-19T17:07:44.401Z,11.12
2023-02-19T17:10:47.439Z,11.08
2023-02-19T17:13:50.605Z,11.02
2023-02-19T17:16:53.692Z,10.98
2023-02-19T17:19:56.620Z,10.89
2023-02-19T17:22:59.482Z,10.75
2023-02-19T17:26:02.822Z,10.71
2023-02-19T17:29:08.477Z,10.66
2023-02-19T17:32:11.745Z,10.55
2023-02-19T17:35:14.882Z,10.58
2023-02-19T17:38:18.922Z,10.62
2023-02-19T17:41:22.062Z,10.61
2023-02-19T17:44:25.048Z,10.62
2023-02-19T17:47:28.178Z,10.63
2023-02-19T17:50:32.720Z,10.51
2023-02-19T17:53:35.650Z,10.50
2023-02-19T17:56:44.013Z,10.43
2023-02-19T17:59:46.943Z,10.55
2023-02-19T18:02:49.866Z,10.45
2023-02-19T18:05:52.999Z,10.36
2023-02-19T18:08:55.754Z,10.42
2023-02-19T18:11:59.021Z,10.40
2023-02-19T18:15:02.263Z,10.37
2023-02-19T18:18:05.584Z,10.39
2023-02-19T18:21:10.138Z,10.36
2023-02-19T18:24:14.094Z,10.41
2023-02-19T18:27:18.843Z,10.39
2023-02-19T18:30:23.928Z,10.36
2023-02-19T18:33:27.196Z,10.43
2023-02-19T18:36:33.003Z,10.34
2023-02-19T18:39:35.702Z,10.38
2023-02-19T18:42:39.931Z,10.52
2023-02-19T18:45:43.400Z,10.35
2023-02-19T18:48:46.896Z,10.28
2023-02-19T18:51:49.721Z,10.32
2023-02-19T18:54:57.321Z,10.30
2023-02-19T18:58:00.035Z,10.20
2023-02-19T19:01:03.380Z,10.22
2023-02-19T19:04:06.807Z,10.13
2023-02-19T19:07:10.874Z,10.27
2023-02-19T19:10:14.952Z,10.37
2023-02-19T19:13:18.231Z,10.18
2023-02-19T19:16:29.118Z,10.14
2023-02-19T19:19:32.464Z,10.20
2023-02-19T19:22:35.154Z,10.13
2023-02-19T19:25:38.272Z,10.33
2023-02-19T19:28:44.487Z,10.27
2023-02-19T19:31:51.205Z,10.24
2023-02-19T19:34:54.167Z,10.14
2023-02-19T19:38:00.553Z,10.10
2023-02-19T19:41:06.669Z,10.08
2023-02-19T19:44:12.456Z,10.03
2023-02-19T19:47:15.122Z,10.05
2023-02-19T19:50:18.777Z,9.88
2023-02-19T19:53:21.462Z,9.76
2023-02-19T19:56:24.669Z,9.83
2023-02-19T19:59:27.466Z,9.86
2023-02-19T20:02:30.721Z,9.77
2023-02-19T20:05:33.706Z,9.72
2023-02-19T20:08:36.673Z,9.70
2023-02-19T20:11:51.317Z,9.68
2023-02-19T20:14:54.262Z,9.79
2023-02-19T20:17:57.962Z,9.64
2023-02-19T20:21:03.674Z,9.64
2023-02-19T20:24:07.121Z,9.63
2023-02-19T20:27:10.164Z,9.58
2023-02-19T20:30:15.500Z,9.54
2023-02-19T20:33:18.810Z,9.72
2023-02-19T20:36:22.044Z,9.66
2023-02-19T20:39:29.101Z,9.72
2023-02-19T20:42:32.211Z,9.64
2023-02-19T20:45:37.271Z,9.55
2023-02-19T20:48:40.198Z,9.56
2023-02-19T20:51:55.190Z,9.57
2023-02-19T20:54:58.085Z,9.56
2023-02-19T20:58:00.946Z,9.64
2023-02-19T21:01:04.089Z,9.67
2023-02-19T21:04:07.179Z,9.53
2023-02-19T21:07:10.085Z,9.49
2023-02-19T21:10:13.571Z,9.51
2023-02-19T21:13:16.439Z,9.38
2023-02-19T21:16:19.472Z,9.35
2023-02-19T21:19:22.442Z,9.30
2023-02-19T21:22:25.428Z,9.34
2023-02-19T21:25:28.954Z,9.25
2023-02-19T21:28:31.905Z,9.22
2023-02-19T21:31:40.219Z,9.12
2023-02-19T21:34:43.289Z,9.07
2023-02-19T21:37:46.548Z,9.05
2023-02-19T21:40:50.773Z,8.87
2023-02-19T21:43:55.182Z,8.71
2023-02-19T21:46:58.103Z,8.67
2023-02-19T21:50:01.110Z,8.46
2023-02-19T21:53:05.670Z,8.38
2023-02-19T21:56:08.900Z,8.31
2023-02-19T21:59:12.372Z,8.27
2023-02-19T22:02:15.436Z,8.07
2023-02-19T22:05:18.981Z,8.12
2023-02-19T22:08:21.819Z,7.95
2023-02-19T22:11:25.272Z,7.91
2023-02-19T22:14:27.856Z,7.81
2023-02-19T22:17:31.145Z,7.84
2023-02-19T22:20:34.755Z,7.66
2023-02-19T22:23:38.004Z,7.68
2023-02-19T22:26:40.783Z,7.66
2023-02-19T22:29:43.888Z,7.51
2023-02-19T22:32:46.393Z,7.49
2023-02-19T22:35:52.186Z,7.49
2023-02-19T22:38:54.877Z,7.46
2023-02-19T22:41:58.149Z,7.46
2023-02-19T22:45:00.943Z,7.33
2023-02-19T22:48:04.036Z,7.29
2023-02-19T22:51:13.376Z,7.27
2023-02-19T22:54:16.996Z,7.24
2023-02-19T22:57:19.612Z,7.26
2023-02-19T23:00:23.150Z,7.15
2023-02-19T23:03:26.008Z,7.20
2023-02-19T23:06:32.081Z,7.03
2023-02-19T23:09:37.830Z,7.04
2023-02-19T23:12:41.246Z,7.14
2023-02-19T23:15:43.712Z,7.08
2023-02-19T23:18:47.014Z,7.16
2023-02-19T23:21:49.911Z,7.12
2023-02-19T23:24:53.078Z,7.04
2023-02-19T23:27:55.595Z,6.99
2023-02-19T23:30:58.914Z,7.04
2023-02-19T23:34:02.382Z,7.05
2023-02-19T23:37:06.705Z,6.83
2023-02-19T23:40:10.093Z,6.81
2023-02-19T23:43:13.263Z,6.78
2023-02-19T23:46:17.847Z,6.77
2023-02-19T23:49:21.485Z,6.68
2023-02-19T23:52:24.163Z,6.77
2023-02-19T23:55:27.792Z,6.75
2023-02-19T23:58:30.350Z,6.72
